createdAt,value
2018-07-04T00:00:03.627Z,16.73
2018-07-04T00:02:43.215Z,16.84
2018-07-04T00:05:22.826Z,16.63
2018-07-04T00:08:02.473Z,16.74
2018-07-04T00:10:42.055Z,16.66
2018-07-04T00:13:21.713Z,16.75
2018-07-04T00:16:01.348Z,16.74
2018-07-04T00:18:40.863Z,16.82
2018-07-04T00:21:20.463Z,16.58
2018-07-04T00:24:00.015Z,16.59
2018-07-04T00:26:39.616Z,16.67
2018-07-04T00:29:19.347Z,16.66
2018-07-04T00:31:59.020Z,16.67
2018-07-04T00:34:38.659Z,16.72
2018-07-04T00:37:18.231Z,16.70
2018-07-04T00:39:57.907Z,16.77
2018-07-04T00:42:37.538Z,16.73
2018-07-04T00:45:17.194Z,16.72
2018-07-04T00:47:56.887Z,16.46
2018-07-04T00:50:36.463Z,16.55
2018-07-04T00:53:16.064Z,16.68
2018-07-04T00:55:55.823Z,16.63
2018-07-04T00:58:35.575Z,16.50
2018-07-04T01:01:15.250Z,16.48
2018-07-04T01:03:54.828Z,16.29
2018-07-04T01:06:34.465Z,16.43
2018-07-04T01:09:14.082Z,16.36
2018-07-04T01:11:53.843Z,16.35
2018-07-04T01:14:33.479Z,16.20
2018-07-04T01:17:13.160Z,16.13
2018-07-04T01:19:52.660Z,16.13
2018-07-04T01:22:32.418Z,16.14
2018-07-04T01:25:12.037Z,15.97
2018-07-04T01:27:51.695Z,16.01
2018-07-04T01:30:31.356Z,16.05
2018-07-04T01:33:10.908Z,15.86
2018-07-04T01:35:50.620Z,15.94
2018-07-04T01:38:30.231Z,15.71
2018-07-04T01:41:09.795Z,15.72
2018-07-04T01:43:49.792Z,15.84
2018-07-04T01:46:29.464Z,15.69
2018-07-04T01:49:09.103Z,15.53
2018-07-04T01:51:48.678Z,15.51
2018-07-04T01:54:28.220Z,15.52
2018-07-04T01:57:07.811Z,15.43
2018-07-04T01:59:47.447Z,15.36
2018-07-04T02:02:27.106Z,15.33
2018-07-04T02:05:06.743Z,15.30
2018-07-04T02:07:46.291Z,15.35
2018-07-04T02:10:26.046Z,15.42
2018-07-04T02:13:05.483Z,15.33
2018-07-04T02:15:45.148Z,15.42
2018-07-04T02:18:25.160Z,15.76
2018-07-04T02:21:04.623Z,15.79
2018-07-04T02:23:44.275Z,15.63
2018-07-04T02:26:23.918Z,15.56
2018-07-04T02:29:03.522Z,15.51
2018-07-04T02:31:43.183Z,15.46
2018-07-04T02:34:26.722Z,15.18
2018-07-04T02:37:07.924Z,15.37
2018-07-04T02:39:47.739Z,15.50
2018-07-04T02:42:27.324Z,15.41
2018-07-04T02:45:07.081Z,15.33
2018-07-04T02:47:46.602Z,15.50
2018-07-04T02:50:26.203Z,15.47
2018-07-04T02:53:05.847Z,15.43
2018-07-04T02:55:45.503Z,15.33
2018-07-04T02:58:25.156Z,15.41
2018-07-04T03:01:04.744Z,17.15
2018-07-04T03:03:44.548Z,16.99
2018-07-04T03:06:24.004Z,16.81
2018-07-04T03:09:04.436Z,17.03
2018-07-04T03:11:44.010Z,17.34
2018-07-04T03:14:23.680Z,17.50
2018-07-04T03:17:03.257Z,17.22
2018-07-04T03:19:42.790Z,16.93
2018-07-04T03:22:22.280Z,18.11
2018-07-04T03:25:01.813Z,17.83
2018-07-04T03:27:41.267Z,19.12
2018-07-04T03:30:21.146Z,18.64
2018-07-04T03:33:00.607Z,18.73
2018-07-04T03:35:40.163Z,18.78
2018-07-04T03:38:21.620Z,19.24
2018-07-04T03:41:02.742Z,18.63
2018-07-04T03:43:42.488Z,17.99
2018-07-04T03:46:22.111Z,17.31
2018-07-04T03:49:01.631Z,16.62
2018-07-04T03:51:41.307Z,16.61
2018-07-04T03:54:20.984Z,16.47
2018-07-04T03:57:00.638Z,16.38
2018-07-04T03:59:40.276Z,16.32
2018-07-04T04:02:19.886Z,16.30
2018-07-04T04:04:59.413Z,16.39
2018-07-04T04:07:39.047Z,16.47
2018-07-04T04:10:18.767Z,16.17
2018-07-04T04:12:58.446Z,16.26
2018-07-04T04:15:38.394Z,16.46
2018-07-04T04:18:18.023Z,16.61
2018-07-04T04:20:57.599Z,16.55
2018-07-04T04:23:37.192Z,16.43
2018-07-04T04:26:16.794Z,16.68
2018-07-04T04:28:56.471Z,16.83
2018-07-04T04:31:36.080Z,16.95
2018-07-04T04:34:15.696Z,17.01
2018-07-04T04:36:55.225Z,17.10
2018-07-04T04:39:34.932Z,17.31
2018-07-04T04:42:14.413Z,17.21
2018-07-04T04:44:54.052Z,17.54
2018-07-04T04:47:33.601Z,17.76
2018-07-04T04:50:13.261Z,17.56
2018-07-04T04:52:52.801Z,17.70
2018-07-04T04:55:32.386Z,17.72
2018-07-04T04:58:12.043Z,17.59
2018-07-04T05:00:51.695Z,17.70
2018-07-04T05:03:31.294Z,17.88
2018-07-04T05:06:10.813Z,18.12
2018-07-04T05:08:50.454Z,18.15
2018-07-04T05:11:30.115Z,18.15
2018-07-04T05:14:10.352Z,18.07
2018-07-04T05:16:49.833Z,18.22
2018-07-04T05:19:29.472Z,18.25
2018-07-04T05:22:09.129Z,18.25
2018-07-04T05:24:48.607Z,18.27
2018-07-04T05:27:28.163Z,18.32
2018-07-04T05:30:07.736Z,18.50
2018-07-04T05:32:47.307Z,18.59
2018-07-04T05:35:26.853Z,18.75
2018-07-04T05:38:06.416Z,18.79
2018-07-04T05:40:46.044Z,18.81
2018-07-04T05:43:25.722Z,18.92
2018-07-04T05:46:05.361Z,19.12
2018-07-04T05:48:44.959Z,19.11
2018-07-04T05:51:24.575Z,19.16
2018-07-04T05:54:04.191Z,19.18
2018-07-04T05:56:43.819Z,19.29
2018-07-04T05:59:23.533Z,19.36
2018-07-04T06:02:02.985Z,19.42
2018-07-04T06:04:42.507Z,19.69
2018-07-04T06:07:22.070Z,19.28
2018-07-04T06:10:01.705Z,19.59
2018-07-04T06:12:41.375Z,19.93
2018-07-04T06:15:21.031Z,20.24
2018-07-04T06:18:00.623Z,20.30
2018-07-04T06:20:40.550Z,20.32
2018-07-04T06:23:20.163Z,20.47
2018-07-04T06:25:59.680Z,20.10
2018-07-04T06:28:39.318Z,20.21
2018-07-04T06:31:19.017Z,20.49
2018-07-04T06:33:58.578Z,20.50
2018-07-04T06:36:38.217Z,20.50
2018-07-04T06:39:05.994Z,20.74
2018-07-04T06:41:33.188Z,20.81
2018-07-04T06:44:00.436Z,20.79
2018-07-04T06:46:27.674Z,20.98
2018-07-04T06:48:54.957Z,21.10
2018-07-04T06:51:22.187Z,21.27
2018-07-04T06:53:49.434Z,21.56
2018-07-04T06:56:16.664Z,21.73
2018-07-04T06:58:43.897Z,21.53
2018-07-04T07:01:11.134Z,21.79
2018-07-04T07:03:50.798Z,21.53
2018-07-04T07:06:30.401Z,21.72
2018-07-04T07:09:10.065Z,22.02
2018-07-04T07:11:49.687Z,22.28
2018-07-04T07:14:29.387Z,22.08
2018-07-04T07:17:08.971Z,22.58
2018-07-04T07:19:48.623Z,22.74
2018-07-04T07:22:28.291Z,22.20
2018-07-04T07:25:07.911Z,22.58
2018-07-04T07:27:47.536Z,23.02
2018-07-04T07:30:27.140Z,23.11
2018-07-04T07:33:06.769Z,23.28
2018-07-04T07:35:46.492Z,23.71
2018-07-04T07:38:26.072Z,23.84
2018-07-04T07:41:05.725Z,23.66
2018-07-04T07:47:27.345Z,24.04
2018-07-04T07:50:06.982Z,23.79
2018-07-04T07:52:46.630Z,24.14
2018-07-04T07:55:26.275Z,24.16
2018-07-04T07:58:05.895Z,24.35
2018-07-04T08:00:45.556Z,24.04
2018-07-04T08:03:25.176Z,24.37
2018-07-04T08:06:04.808Z,24.67
2018-07-04T08:08:44.426Z,24.36
2018-07-04T08:11:23.943Z,23.99
2018-07-04T08:14:03.567Z,24.04
2018-07-04T08:16:43.263Z,24.27
2018-07-04T08:19:22.969Z,24.45
2018-07-04T08:22:02.510Z,24.43
2018-07-04T08:24:42.127Z,24.47
2018-07-04T08:27:21.803Z,24.59
2018-07-04T08:30:01.415Z,25.05
2018-07-04T08:32:41.045Z,25.26
2018-07-04T08:35:20.564Z,25.27
2018-07-04T08:38:00.190Z,25.89
2018-07-04T08:40:39.875Z,25.74
2018-07-04T08:43:19.498Z,25.47
2018-07-04T08:45:59.125Z,26.14
2018-07-04T08:48:38.777Z,26.05
2018-07-04T08:51:18.265Z,26.19
2018-07-04T08:53:57.967Z,26.30
2018-07-04T08:56:37.540Z,26.35
2018-07-04T08:59:17.188Z,26.95
2018-07-04T09:01:56.680Z,26.42
2018-07-04T09:04:36.263Z,26.39
2018-07-04T09:07:16.044Z,26.48
2018-07-04T09:09:55.535Z,26.76
2018-07-04T09:12:35.187Z,27.05
2018-07-04T09:15:14.823Z,27.13
2018-07-04T09:17:54.407Z,27.42
2018-07-04T09:20:35.076Z,27.82
2018-07-04T09:23:14.707Z,27.31
2018-07-04T09:25:54.223Z,27.28
2018-07-04T09:28:33.865Z,27.39
2018-07-04T09:31:13.710Z,26.73
2018-07-04T09:33:53.322Z,26.60
2018-07-04T09:36:33.051Z,27.16
2018-07-04T09:39:12.659Z,27.21
2018-07-04T09:41:52.499Z,27.40
2018-07-04T09:44:31.876Z,27.73
2018-07-04T09:47:11.446Z,27.75
2018-07-04T09:49:51.120Z,27.93
2018-07-04T09:52:30.600Z,28.04
2018-07-04T09:55:10.558Z,28.58
2018-07-04T09:57:50.276Z,28.88
2018-07-04T10:00:30.709Z,28.79
2018-07-04T10:03:11.408Z,28.82
2018-07-04T10:05:51.129Z,28.98
2018-07-04T10:08:30.702Z,28.76
2018-07-04T10:11:10.766Z,29.35
2018-07-04T10:13:50.279Z,29.41
2018-07-04T10:16:29.952Z,29.47
2018-07-04T10:19:09.543Z,30.15
2018-07-04T10:23:18.236Z,30.18
2018-07-04T10:25:57.922Z,29.67
2018-07-04T10:28:37.904Z,30.06
2018-07-04T10:31:17.512Z,30.71
2018-07-04T10:33:56.978Z,30.59
2018-07-04T10:36:36.513Z,30.26
2018-07-04T10:39:16.042Z,30.44
2018-07-04T10:41:55.599Z,30.07
2018-07-04T10:44:35.725Z,30.51
2018-07-04T10:47:15.332Z,29.53
2018-07-04T10:49:54.841Z,31.07
2018-07-04T10:52:34.340Z,31.72
2018-07-04T10:55:13.946Z,30.77
2018-07-04T10:57:53.572Z,31.50
2018-07-04T11:00:33.023Z,31.45
2018-07-04T11:03:12.595Z,30.71
2018-07-04T11:05:52.534Z,30.88
2018-07-04T11:08:32.289Z,30.57
2018-07-04T11:11:11.906Z,30.10
2018-07-04T11:13:51.731Z,30.93
2018-07-04T11:16:31.272Z,30.98
2018-07-04T11:19:10.893Z,30.68
2018-07-04T11:21:50.630Z,31.11
2018-07-04T11:24:30.265Z,31.63
2018-07-04T11:27:10.199Z,31.21
2018-07-04T11:29:49.899Z,31.29
2018-07-04T11:32:29.785Z,31.65
2018-07-04T11:35:09.771Z,31.62
2018-07-04T11:37:49.188Z,30.75
2018-07-04T11:40:28.831Z,31.08
2018-07-04T11:43:08.372Z,31.20
2018-07-04T11:45:48.019Z,30.97
2018-07-04T11:48:15.260Z,30.67
2018-07-04T11:50:42.475Z,30.75
2018-07-04T11:53:09.748Z,31.75
2018-07-04T11:55:36.943Z,31.99
2018-07-04T11:58:04.190Z,31.57
2018-07-04T12:00:31.422Z,32.54
2018-07-04T12:02:58.666Z,31.66
2018-07-04T12:05:38.281Z,31.63
2018-07-04T12:08:05.539Z,32.78
2018-07-04T12:10:32.765Z,34.00
2018-07-04T12:12:59.976Z,34.06
2018-07-04T12:15:27.220Z,34.31
2018-07-04T12:17:54.428Z,34.64
2018-07-04T12:20:21.706Z,34.57
2018-07-04T12:22:48.906Z,34.71
2018-07-04T12:25:16.139Z,35.00
2018-07-04T12:27:43.382Z,34.66
2018-07-04T12:30:10.590Z,34.27
2018-07-04T12:32:37.814Z,34.61
2018-07-04T12:35:05.037Z,33.65
2018-07-04T12:37:32.352Z,33.06
2018-07-04T12:39:59.535Z,34.30
2018-07-04T12:42:26.893Z,35.37
2018-07-04T12:44:54.144Z,34.93
2018-07-04T12:47:21.411Z,34.21
2018-07-04T12:49:48.632Z,34.74
2018-07-04T12:52:15.863Z,36.00
2018-07-04T12:54:48.417Z,35.83
2018-07-04T12:57:27.835Z,36.24
2018-07-04T13:00:07.453Z,34.88
2018-07-04T13:02:46.948Z,35.60
2018-07-04T13:05:26.621Z,35.51
2018-07-04T13:08:06.118Z,35.94
2018-07-04T13:10:45.787Z,35.11
2018-07-04T13:13:25.291Z,34.75
2018-07-04T13:16:05.060Z,33.65
2018-07-04T13:18:44.668Z,33.89
2018-07-04T13:21:24.255Z,33.87
2018-07-04T13:24:03.887Z,34.14
2018-07-04T13:26:43.424Z,34.02
2018-07-04T13:29:23.046Z,34.83
2018-07-04T13:32:02.726Z,35.40
2018-07-04T13:34:42.338Z,35.45
2018-07-04T13:37:21.994Z,35.59
2018-07-04T13:40:01.658Z,35.25
2018-07-04T13:42:41.145Z,35.21
2018-07-04T13:45:20.699Z,35.31
2018-07-04T13:48:00.335Z,35.71
2018-07-04T13:50:39.974Z,34.71
2018-07-04T13:53:19.656Z,34.58
2018-07-04T13:55:59.094Z,33.38
2018-07-04T13:58:38.687Z,34.38
2018-07-04T14:01:18.319Z,35.19
2018-07-04T14:03:58.000Z,36.81
2018-07-04T14:06:37.556Z,37.06
2018-07-04T14:09:17.691Z,36.69
2018-07-04T14:11:57.420Z,36.78
2018-07-04T14:14:36.935Z,37.81
2018-07-04T14:17:16.707Z,39.38
2018-07-04T14:19:56.388Z,37.51
2018-07-04T14:22:35.976Z,34.79
2018-07-04T14:25:15.546Z,37.40
2018-07-04T14:27:55.164Z,37.51
2018-07-04T14:30:34.807Z,37.49
2018-07-04T14:33:14.380Z,38.08
2018-07-04T14:35:53.995Z,36.60
2018-07-04T14:38:33.603Z,36.61
2018-07-04T14:41:13.155Z,37.39
2018-07-04T14:43:52.813Z,37.11
2018-07-04T14:46:32.369Z,35.67
2018-07-04T14:49:11.991Z,35.02
2018-07-04T14:51:51.694Z,37.17
2018-07-04T14:54:31.287Z,37.84
2018-07-04T14:57:11.232Z,39.05
2018-07-04T14:59:50.731Z,38.54
2018-07-04T15:02:30.687Z,35.87
2018-07-04T15:05:10.207Z,36.27
2018-07-04T15:07:49.916Z,35.91
2018-07-04T15:10:29.395Z,38.53
2018-07-04T15:13:09.103Z,38.54
2018-07-04T15:15:48.761Z,38.46
2018-07-04T15:18:31.066Z,37.92
2018-07-04T15:21:10.595Z,37.77
2018-07-04T15:23:50.287Z,37.76
2018-07-04T15:26:29.936Z,38.24
2018-07-04T15:29:09.573Z,38.42
2018-07-04T15:31:49.095Z,38.64
2018-07-04T15:34:28.498Z,39.56
2018-07-04T15:37:08.348Z,38.21
2018-07-04T15:39:47.925Z,37.43
2018-07-04T15:42:27.627Z,36.54
2018-07-04T15:45:07.285Z,37.80
2018-07-04T15:47:47.127Z,36.90
2018-07-04T15:50:26.647Z,37.61
2018-07-04T15:53:06.316Z,36.21
2018-07-04T15:55:45.862Z,36.41
2018-07-04T15:58:25.365Z,38.19
2018-07-04T16:01:05.061Z,38.26
2018-07-04T16:03:44.651Z,38.85
2018-07-04T16:06:24.321Z,36.15
2018-07-04T16:09:05.258Z,36.14
2018-07-04T16:11:44.840Z,35.22
2018-07-04T16:14:24.323Z,33.57
2018-07-04T16:17:04.024Z,34.33
2018-07-04T16:19:43.574Z,35.74
2018-07-04T16:22:23.155Z,33.97
2018-07-04T16:25:02.723Z,33.16
2018-07-04T16:27:42.379Z,33.01
2018-07-04T16:30:22.092Z,32.89
2018-07-04T16:33:02.112Z,33.88
2018-07-04T16:35:41.972Z,33.08
2018-07-04T16:38:21.556Z,32.80
2018-07-04T16:41:01.167Z,31.87
2018-07-04T16:43:40.733Z,32.20
2018-07-04T16:46:20.363Z,31.92
2018-07-04T16:48:59.970Z,31.58
2018-07-04T16:51:39.556Z,31.21
2018-07-04T16:54:19.179Z,31.08
2018-07-04T16:56:58.800Z,30.97
2018-07-04T16:59:38.171Z,31.16
2018-07-04T17:02:17.736Z,30.53
2018-07-04T17:04:57.491Z,30.50
2018-07-04T17:07:37.220Z,30.22
2018-07-04T17:10:16.743Z,30.25
2018-07-04T17:12:56.400Z,29.71
2018-07-04T17:15:35.952Z,29.64
2018-07-04T17:18:15.486Z,29.48
2018-07-04T17:20:55.113Z,29.52
2018-07-04T17:23:34.692Z,29.37
2018-07-04T17:26:14.906Z,29.19
2018-07-04T17:28:54.487Z,29.12
2018-07-04T17:31:34.267Z,29.04
2018-07-04T17:34:13.805Z,29.27
2018-07-04T17:36:53.409Z,29.09
2018-07-04T17:39:33.087Z,29.10
2018-07-04T17:42:12.728Z,29.14
2018-07-04T17:44:52.343Z,29.07
2018-07-04T17:47:31.884Z,29.26
2018-07-04T17:50:11.540Z,28.95
2018-07-04T17:52:51.203Z,29.12
2018-07-04T17:55:30.657Z,28.67
2018-07-04T17:58:10.204Z,28.91
2018-07-04T18:46:34.691Z,28.46
2018-07-04T18:49:14.339Z,28.16
2018-07-04T18:51:54.010Z,27.68
2018-07-04T18:54:33.641Z,27.49
2018-07-04T18:57:13.242Z,27.30
2018-07-04T18:59:52.919Z,27.16
2018-07-04T19:02:32.411Z,27.14
2018-07-04T19:05:12.022Z,26.92
2018-07-04T19:07:51.491Z,26.94
2018-07-04T19:10:31.194Z,26.53
2018-07-04T19:13:10.644Z,26.33
2018-07-04T19:15:50.404Z,26.19
2018-07-04T19:18:29.768Z,26.06
2018-07-04T19:21:09.343Z,25.97
2018-07-04T19:23:48.846Z,25.91
2018-07-04T19:26:28.495Z,25.75
2018-07-04T19:29:07.942Z,25.69
2018-07-04T19:31:47.650Z,25.60
2018-07-04T19:34:27.122Z,25.45
2018-07-04T19:37:07.347Z,25.41
2018-07-04T19:39:46.855Z,25.37
2018-07-04T19:42:26.688Z,25.32
2018-07-04T19:45:06.987Z,25.24
2018-07-04T19:47:46.430Z,25.08
2018-07-04T19:50:26.620Z,25.20
2018-07-04T19:53:06.122Z,25.10
2018-07-04T19:55:45.785Z,25.12
2018-07-04T19:58:25.449Z,25.00
2018-07-04T20:01:04.935Z,24.94
2018-07-04T20:03:44.434Z,24.87
2018-07-04T20:06:24.055Z,24.74
2018-07-04T20:09:03.976Z,24.76
2018-07-04T20:11:43.596Z,24.70
2018-07-04T20:14:23.131Z,24.72
2018-07-04T20:17:02.996Z,24.78
2018-07-04T20:19:42.496Z,24.80
2018-07-04T20:22:22.035Z,24.60
2018-07-04T20:25:01.876Z,24.50
2018-07-04T20:27:41.359Z,24.48
2018-07-04T20:30:20.835Z,24.52
2018-07-04T20:33:00.424Z,24.34
2018-07-04T20:35:40.281Z,24.29
2018-07-04T20:38:19.794Z,24.29
2018-07-04T20:40:59.808Z,24.28
2018-07-04T20:43:39.364Z,24.30
2018-07-04T20:46:19.352Z,24.24
2018-07-04T20:48:58.952Z,24.28
2018-07-04T20:51:38.606Z,24.21
2018-07-04T20:54:18.120Z,24.16
2018-07-04T20:56:57.588Z,24.11
2018-07-04T20:59:37.208Z,24.17
2018-07-04T21:02:16.771Z,24.16
2018-07-04T21:04:56.393Z,24.09
2018-07-04T21:07:36.162Z,24.08
2018-07-04T21:10:15.728Z,23.98
2018-07-04T21:12:55.716Z,23.88
2018-07-04T21:15:35.176Z,23.86
2018-07-04T21:18:14.812Z,23.82
2018-07-04T21:20:54.427Z,23.79
2018-07-04T21:23:33.959Z,23.77
2018-07-04T21:26:13.487Z,23.70
2018-07-04T21:28:53.234Z,23.65
2018-07-04T21:31:32.743Z,23.42
2018-07-04T21:34:12.430Z,23.34
2018-07-04T21:36:51.936Z,23.24
2018-07-04T21:39:31.359Z,23.24
2018-07-04T21:42:10.970Z,23.19
2018-07-04T21:44:50.582Z,23.05
2018-07-04T21:47:30.183Z,22.98
2018-07-04T21:50:09.876Z,22.87
2018-07-04T21:52:49.502Z,22.83
2018-07-04T21:55:29.026Z,22.77
2018-07-04T21:58:08.520Z,22.69
2018-07-04T22:00:48.039Z,22.63
2018-07-04T22:03:27.740Z,22.57
2018-07-04T22:06:07.188Z,22.57
2018-07-04T22:08:46.884Z,22.24
2018-07-04T22:11:26.452Z,22.47
2018-07-04T22:14:05.949Z,22.43
2018-07-04T22:16:45.879Z,22.37
2018-07-04T22:19:25.482Z,22.30
2018-07-04T22:22:05.091Z,22.22
2018-07-04T22:24:45.124Z,21.92
2018-07-04T22:27:24.667Z,21.87
2018-07-04T22:30:04.134Z,21.92
2018-07-04T22:32:43.779Z,21.98
2018-07-04T22:35:23.304Z,21.78
2018-07-04T22:38:02.847Z,21.72
2018-07-04T22:40:42.296Z,21.60
2018-07-04T22:43:21.688Z,21.59
2018-07-04T22:46:01.592Z,21.64
2018-07-04T22:48:40.989Z,21.57
2018-07-04T22:51:20.588Z,21.56
2018-07-04T22:54:00.099Z,21.53
2018-07-04T22:56:39.973Z,21.37
2018-07-04T22:59:19.673Z,21.49
2018-07-04T23:01:59.436Z,21.47
2018-07-04T23:04:38.918Z,21.52
2018-07-04T23:07:18.678Z,21.51
2018-07-04T23:09:58.088Z,21.44
2018-07-04T23:12:37.596Z,21.45
2018-07-04T23:15:17.049Z,21.41
2018-07-04T23:17:56.500Z,21.33
2018-07-04T23:20:36.001Z,21.34
2018-07-04T23:23:15.651Z,21.28
2018-07-04T23:25:55.343Z,21.36
2018-07-04T23:28:35.001Z,21.38
2018-07-04T23:31:14.651Z,21.23
2018-07-04T23:33:54.231Z,21.11
2018-07-04T23:36:33.959Z,21.05
2018-07-04T23:39:13.435Z,21.12
2018-07-04T23:41:53.255Z,21.09
2018-07-04T23:44:32.987Z,21.06
2018-07-04T23:47:12.698Z,20.77
2018-07-04T23:49:52.190Z,21.15
2018-07-04T23:52:31.846Z,21.07
2018-07-04T23:55:11.380Z,20.84
2018-07-04T23:57:50.889Z,20.88
